sensor_id;sensor_type;location;lat;lon;timestamp;P1;durP1;ratioP1;P2;durP2;ratioP2
13588;SDS011;6865;52.552;13.434;2023-12-20T00:01:11;8.13;;;6.27;;
13588;SDS011;6865;52.552;13.434;2023-12-20T00:03:38;6.57;;;5.97;;
13588;SDS011;6865;52.552;13.434;2023-12-20T00:06:08;7.53;;;6.70;;
13588;SDS011;6865;52.552;13.434;2023-12-20T00:08:35;7.90;;;6.50;;
13588;SDS011;6865;52.552;13.434;2023-12-20T00:11:02;6.30;;;5.70;;
13588;SDS011;6865;52.552;13.434;2023-12-20T00:13:29;6.77;;;5.70;;
13588;SDS011;6865;52.552;13.434;2023-12-20T00:15:56;6.30;;;5.70;;
13588;SDS011;6865;52.552;13.434;2023-12-20T00:18:23;7.90;;;6.13;;
13588;SDS011;6865;52.552;13.434;2023-12-20T00:20:49;6.70;;;5.73;;
13588;SDS011;6865;52.552;13.434;2023-12-20T00:23:16;6.73;;;6.00;;
13588;SDS011;6865;52.552;13.434;2023-12-20T00:25:43;8.23;;;6.27;;
13588;SDS011;6865;52.552;13.434;2023-12-20T00:28:10;7.13;;;6.10;;
13588;SDS011;6865;52.552;13.434;2023-12-20T00:30:36;6.23;;;5.63;;
13588;SDS011;6865;52.552;13.434;2023-12-20T00:33:03;7.00;;;6.30;;
13588;SDS011;6865;52.552;13.434;2023-12-20T00:35:30;7.20;;;6.17;;
13588;SDS011;6865;52.552;13.434;2023-12-20T00:37:58;7.60;;;6.37;;
13588;SDS011;6865;52.552;13.434;2023-12-20T00:40:25;7.20;;;6.03;;
13588;SDS011;6865;52.552;13.434;2023-12-20T00:42:52;7.00;;;6.30;;
13588;SDS011;6865;52.552;13.434;2023-12-20T00:45:18;7.17;;;6.20;;
13588;SDS011;6865;52.552;13.434;2023-12-20T00:47:45;7.87;;;6.83;;
13588;SDS011;6865;52.552;13.434;2023-12-20T00:50:12;7.30;;;6.00;;
13588;SDS011;6865;52.552;13.434;2023-12-20T00:52:39;7.70;;;6.40;;
13588;SDS011;6865;52.552;13.434;2023-12-20T00:55:06;7.37;;;5.70;;
13588;SDS011;6865;52.552;13.434;2023-12-20T00:57:34;7.40;;;6.17;;
13588;SDS011;6865;52.552;13.434;2023-12-20T01:00:01;7.17;;;6.40;;
13588;SDS011;6865;52.552;13.434;2023-12-20T01:02:28;6.87;;;6.17;;
13588;SDS011;6865;52.552;13.434;2023-12-20T01:04:55;7.10;;;6.40;;
13588;SDS011;6865;52.552;13.434;2023-12-20T01:07:22;8.03;;;6.67;;
13588;SDS011;6865;52.552;13.434;2023-12-20T01:09:48;7.93;;;6.23;;
13588;SDS011;6865;52.552;13.434;2023-12-20T01:12:15;10.03;;;6.93;;
13588;SDS011;6865;52.552;13.434;2023-12-20T01:14:42;7.53;;;6.73;;
13588;SDS011;6865;52.552;13.434;2023-12-20T01:17:09;8.60;;;6.90;;
13588;SDS011;6865;52.552;13.434;2023-12-20T01:19:35;7.50;;;6.67;;
13588;SDS011;6865;52.552;13.434;2023-12-20T01:22:03;7.33;;;6.63;;
13588;SDS011;6865;52.552;13.434;2023-12-20T01:24:30;8.93;;;7.03;;
13588;SDS011;6865;52.552;13.434;2023-12-20T01:26:57;7.40;;;6.60;;
13588;SDS011;6865;52.552;13.434;2023-12-20T01:29:23;7.77;;;6.97;;
13588;SDS011;6865;52.552;13.434;2023-12-20T01:31:50;7.47;;;6.60;;
13588;SDS011;6865;52.552;13.434;2023-12-20T01:34:17;7.63;;;6.83;;
13588;SDS011;6865;52.552;13.434;2023-12-20T01:36:44;8.73;;;6.47;;
13588;SDS011;6865;52.552;13.434;2023-12-20T01:39:11;7.73;;;6.93;;
13588;SDS011;6865;52.552;13.434;2023-12-20T01:41:52;8.97;;;6.70;;
13588;SDS011;6865;52.552;13.434;2023-12-20T01:44:19;8.43;;;6.60;;
13588;SDS011;6865;52.552;13.434;2023-12-20T01:46:46;7.40;;;6.13;;
13588;SDS011;6865;52.552;13.434;2023-12-20T01:49:14;8.27;;;6.23;;
13588;SDS011;6865;52.552;13.434;2023-12-20T01:51:41;7.07;;;6.07;;
13588;SDS011;6865;52.552;13.434;2023-12-20T01:54:08;6.93;;;5.80;;
13588;SDS011;6865;52.552;13.434;2023-12-20T01:56:35;6.33;;;5.60;;
13588;SDS011;6865;52.552;13.434;2023-12-20T01:59:02;6.73;;;5.67;;
13588;SDS011;6865;52.552;13.434;2023-12-20T02:01:30;6.77;;;4.60;;
13588;SDS011;6865;52.552;13.434;2023-12-20T02:04:00;5.50;;;4.70;;
13588;SDS011;6865;52.552;13.434;2023-12-20T02:06:31;4.67;;;4.13;;
13588;SDS011;6865;52.552;13.434;2023-12-20T02:09:00;4.30;;;3.90;;
13588;SDS011;6865;52.552;13.434;2023-12-20T02:11:27;4.83;;;3.50;;
13588;SDS011;6865;52.552;13.434;2023-12-20T02:13:54;4.60;;;3.83;;
13588;SDS011;6865;52.552;13.434;2023-12-20T02:16:21;4.67;;;3.43;;
13588;SDS011;6865;52.552;13.434;2023-12-20T02:18:49;5.60;;;3.80;;
13588;SDS011;6865;52.552;13.434;2023-12-20T02:21:16;6.17;;;3.60;;
13588;SDS011;6865;52.552;13.434;2023-12-20T02:23:42;5.90;;;3.73;;
13588;SDS011;6865;52.552;13.434;2023-12-20T02:26:09;6.87;;;3.90;;
13588;SDS011;6865;52.552;13.434;2023-12-20T02:28:36;4.63;;;3.33;;
13588;SDS011;6865;52.552;13.434;2023-12-20T02:31:03;5.20;;;3.23;;
13588;SDS011;6865;52.552;13.434;2023-12-20T02:33:30;4.73;;;2.87;;
13588;SDS011;6865;52.552;13.434;2023-12-20T02:35:57;3.60;;;2.83;;
13588;SDS011;6865;52.552;13.434;2023-12-20T02:38:24;3.53;;;2.63;;
13588;SDS011;6865;52.552;13.434;2023-12-20T02:40:50;6.77;;;2.80;;
13588;SDS011;6865;52.552;13.434;2023-12-20T02:43:17;3.83;;;2.40;;
13588;SDS011;6865;52.552;13.434;2023-12-20T02:45:44;4.80;;;2.47;;
13588;SDS011;6865;52.552;13.434;2023-12-20T02:48:11;3.00;;;2.30;;
13588;SDS011;6865;52.552;13.434;2023-12-20T02:50:38;4.70;;;2.20;;
13588;SDS011;6865;52.552;13.434;2023-12-20T02:53:07;3.90;;;2.37;;
13588;SDS011;6865;52.552;13.434;2023-12-20T02:55:37;5.43;;;2.40;;
13588;SDS011;6865;52.552;13.434;2023-12-20T02:58:03;5.13;;;3.00;;
13588;SDS011;6865;52.552;13.434;2023-12-20T03:00:30;4.10;;;2.97;;
13588;SDS011;6865;52.552;13.434;2023-12-20T03:02:57;7.67;;;3.23;;
13588;SDS011;6865;52.552;13.434;2023-12-20T03:05:25;4.13;;;3.17;;
13588;SDS011;6865;52.552;13.434;2023-12-20T03:07:52;4.33;;;3.23;;
13588;SDS011;6865;52.552;13.434;2023-12-20T03:10:19;5.27;;;2.90;;
13588;SDS011;6865;52.552;13.434;2023-12-20T03:12:52;4.63;;;3.03;;
13588;SDS011;6865;52.552;13.434;2023-12-20T03:15:19;6.47;;;3.03;;
13588;SDS011;6865;52.552;13.434;2023-12-20T03:17:46;4.73;;;2.93;;
13588;SDS011;6865;52.552;13.434;2023-12-20T03:20:13;6.70;;;2.33;;
13588;SDS011;6865;52.552;13.434;2023-12-20T03:22:40;4.00;;;2.30;;
13588;SDS011;6865;52.552;13.434;2023-12-20T03:25:06;5.40;;;2.03;;
13588;SDS011;6865;52.552;13.434;2023-12-20T03:27:34;5.63;;;2.80;;
13588;SDS011;6865;52.552;13.434;2023-12-20T03:30:04;6.40;;;2.70;;
13588;SDS011;6865;52.552;13.434;2023-12-20T03:32:32;4.13;;;2.27;;
13588;SDS011;6865;52.552;13.434;2023-12-20T03:34:59;5.87;;;2.40;;
13588;SDS011;6865;52.552;13.434;2023-12-20T03:37:26;7.53;;;2.37;;
13588;SDS011;6865;52.552;13.434;2023-12-20T03:39:52;4.43;;;2.00;;
13588;SDS011;6865;52.552;13.434;2023-12-20T03:42:19;4.60;;;2.10;;
13588;SDS011;6865;52.552;13.434;2023-12-20T03:44:46;6.67;;;2.13;;
13588;SDS011;6865;52.552;13.434;2023-12-20T03:47:12;6.43;;;2.23;;
13588;SDS011;6865;52.552;13.434;2023-12-20T03:49:39;6.20;;;2.20;;
13588;SDS011;6865;52.552;13.434;2023-12-20T03:52:06;5.80;;;2.10;;
13588;SDS011;6865;52.552;13.434;2023-12-20T03:54:33;6.87;;;2.10;;
13588;SDS011;6865;52.552;13.434;2023-12-20T03:57:01;6.23;;;2.40;;
13588;SDS011;6865;52.552;13.434;2023-12-20T03:59:28;8.93;;;2.67;;
13588;SDS011;6865;52.552;13.434;2023-12-20T04:01:54;5.53;;;2.17;;
13588;SDS011;6865;52.552;13.434;2023-12-20T04:04:21;4.27;;;1.90;;
13588;SDS011;6865;52.552;13.434;2023-12-20T04:06:48;7.27;;;2.10;;
13588;SDS011;6865;52.552;13.434;2023-12-20T04:09:15;7.83;;;2.30;;
13588;SDS011;6865;52.552;13.434;2023-12-20T04:11:41;8.27;;;2.50;;
13588;SDS011;6865;52.552;13.434;2023-12-20T04:14:08;7.97;;;2.10;;
13588;SDS011;6865;52.552;13.434;2023-12-20T04:16:36;8.90;;;2.30;;
13588;SDS011;6865;52.552;13.434;2023-12-20T04:19:03;6.53;;;2.23;;
13588;SDS011;6865;52.552;13.434;2023-12-20T04:21:29;11.27;;;2.23;;
13588;SDS011;6865;52.552;13.434;2023-12-20T04:23:56;6.83;;;2.27;;
13588;SDS011;6865;52.552;13.434;2023-12-20T04:26:23;7.03;;;2.10;;
13588;SDS011;6865;52.552;13.434;2023-12-20T04:28:50;7.80;;;2.00;;
13588;SDS011;6865;52.552;13.434;2023-12-20T04:31:20;8.87;;;2.23;;
13588;SDS011;6865;52.552;13.434;2023-12-20T04:33:47;10.87;;;2.23;;
13588;SDS011;6865;52.552;13.434;2023-12-20T04:36:13;8.03;;;2.20;;
13588;SDS011;6865;52.552;13.434;2023-12-20T04:38:40;8.23;;;2.10;;
13588;SDS011;6865;52.552;13.434;2023-12-20T04:41:07;7.23;;;2.13;;
13588;SDS011;6865;52.552;13.434;2023-12-20T04:43:34;10.60;;;2.20;;
13588;SDS011;6865;52.552;13.434;2023-12-20T04:46:00;5.13;;;1.70;;
13588;SDS011;6865;52.552;13.434;2023-12-20T04:48:27;8.13;;;2.00;;
13588;SDS011;6865;52.552;13.434;2023-12-20T04:50:54;5.10;;;1.77;;
13588;SDS011;6865;52.552;13.434;2023-12-20T04:53:21;6.90;;;2.07;;
13588;SDS011;6865;52.552;13.434;2023-12-20T04:55:47;8.90;;;2.10;;
13588;SDS011;6865;52.552;13.434;2023-12-20T04:58:14;9.90;;;2.47;;
13588;SDS011;6865;52.552;13.434;2023-12-20T05:00:41;10.50;;;2.80;;
13588;SDS011;6865;52.552;13.434;2023-12-20T05:03:07;8.87;;;2.80;;
13588;SDS011;6865;52.552;13.434;2023-12-20T05:05:35;5.60;;;2.70;;
13588;SDS011;6865;52.552;13.434;2023-12-20T05:08:02;9.03;;;2.33;;
13588;SDS011;6865;52.552;13.434;2023-12-20T05:10:30;11.10;;;2.50;;
13588;SDS011;6865;52.552;13.434;2023-12-20T05:12:57;9.80;;;2.33;;
13588;SDS011;6865;52.552;13.434;2023-12-20T05:15:23;7.20;;;2.47;;
13588;SDS011;6865;52.552;13.434;2023-12-20T05:17:50;8.10;;;2.10;;
13588;SDS011;6865;52.552;13.434;2023-12-20T05:20:17;9.07;;;2.60;;
13588;SDS011;6865;52.552;13.434;2023-12-20T05:22:44;13.23;;;2.77;;
13588;SDS011;6865;52.552;13.434;2023-12-20T05:25:11;8.43;;;2.33;;
13588;SDS011;6865;52.552;13.434;2023-12-20T05:27:38;12.00;;;2.40;;
13588;SDS011;6865;52.552;13.434;2023-12-20T05:30:05;12.40;;;2.73;;
13588;SDS011;6865;52.552;13.434;2023-12-20T05:32:32;11.03;;;2.43;;
13588;SDS011;6865;52.552;13.434;2023-12-20T05:34:59;8.07;;;2.47;;
13588;SDS011;6865;52.552;13.434;2023-12-20T05:37:26;7.33;;;2.47;;
13588;SDS011;6865;52.552;13.434;2023-12-20T05:39:52;9.67;;;2.30;;
13588;SDS011;6865;52.552;13.434;2023-12-20T05:42:19;7.40;;;2.77;;
13588;SDS011;6865;52.552;13.434;2023-12-20T05:44:46;9.17;;;2.17;;
13588;SDS011;6865;52.552;13.434;2023-12-20T05:47:15;12.00;;;2.57;;
13588;SDS011;6865;52.552;13.434;2023-12-20T05:49:43;6.70;;;2.30;;
13588;SDS011;6865;52.552;13.434;2023-12-20T05:52:10;14.80;;;3.07;;
13588;SDS011;6865;52.552;13.434;2023-12-20T05:54:37;7.90;;;2.40;;
13588;SDS011;6865;52.552;13.434;2023-12-20T05:57:03;10.63;;;2.83;;
13588;SDS011;6865;52.552;13.434;2023-12-20T05:59:30;6.70;;;2.63;;
13588;SDS011;6865;52.552;13.434;2023-12-20T06:01:57;11.17;;;3.00;;
13588;SDS011;6865;52.552;13.434;2023-12-20T06:04:23;10.53;;;2.83;;
13588;SDS011;6865;52.552;13.434;2023-12-20T06:06:50;6.07;;;1.97;;
13588;SDS011;6865;52.552;13.434;2023-12-20T06:09:17;9.83;;;2.30;;
13588;SDS011;6865;52.552;13.434;2023-12-20T06:11:43;7.67;;;1.83;;
13588;SDS011;6865;52.552;13.434;2023-12-20T06:14:10;9.93;;;2.47;;
13588;SDS011;6865;52.552;13.434;2023-12-20T06:16:37;9.70;;;2.73;;
13588;SDS011;6865;52.552;13.434;2023-12-20T06:19:03;7.10;;;2.50;;
13588;SDS011;6865;52.552;13.434;2023-12-20T06:21:30;12.33;;;2.30;;
13588;SDS011;6865;52.552;13.434;2023-12-20T06:23:58;12.40;;;2.17;;
13588;SDS011;6865;52.552;13.434;2023-12-20T06:26:25;9.93;;;2.33;;
13588;SDS011;6865;52.552;13.434;2023-12-20T06:28:52;7.00;;;2.00;;
13588;SDS011;6865;52.552;13.434;2023-12-20T06:31:18;9.53;;;2.57;;
13588;SDS011;6865;52.552;13.434;2023-12-20T06:33:45;10.33;;;2.00;;
13588;SDS011;6865;52.552;13.434;2023-12-20T06:36:12;7.47;;;2.17;;
13588;SDS011;6865;52.552;13.434;2023-12-20T06:38:39;8.93;;;2.20;;
13588;SDS011;6865;52.552;13.434;2023-12-20T06:41:06;8.83;;;2.27;;
13588;SDS011;6865;52.552;13.434;2023-12-20T06:43:33;7.97;;;2.40;;
13588;SDS011;6865;52.552;13.434;2023-12-20T06:46:14;8.90;;;2.33;;
13588;SDS011;6865;52.552;13.434;2023-12-20T06:48:41;8.60;;;2.50;;
13588;SDS011;6865;52.552;13.434;2023-12-20T06:51:11;8.33;;;2.50;;
13588;SDS011;6865;52.552;13.434;2023-12-20T06:53:42;11.07;;;2.30;;
13588;SDS011;6865;52.552;13.434;2023-12-20T06:56:10;8.10;;;2.17;;
13588;SDS011;6865;52.552;13.434;2023-12-20T06:58:41;9.00;;;2.40;;
13588;SDS011;6865;52.552;13.434;2023-12-20T07:01:11;8.40;;;2.57;;
13588;SDS011;6865;52.552;13.434;2023-12-20T07:03:38;10.83;;;2.57;;
13588;SDS011;6865;52.552;13.434;2023-12-20T07:06:06;7.83;;;2.30;;
13588;SDS011;6865;52.552;13.434;2023-12-20T07:08:33;16.10;;;2.70;;
13588;SDS011;6865;52.552;13.434;2023-12-20T07:11:00;10.93;;;2.37;;
13588;SDS011;6865;52.552;13.434;2023-12-20T07:13:27;6.93;;;2.33;;
13588;SDS011;6865;52.552;13.434;2023-12-20T07:15:54;11.90;;;2.30;;
13588;SDS011;6865;52.552;13.434;2023-12-20T07:18:20;8.33;;;2.13;;
13588;SDS011;6865;52.552;13.434;2023-12-20T07:20:47;4.70;;;2.03;;
13588;SDS011;6865;52.552;13.434;2023-12-20T07:23:14;9.30;;;2.50;;
13588;SDS011;6865;52.552;13.434;2023-12-20T07:25:41;6.20;;;2.37;;
13588;SDS011;6865;52.552;13.434;2023-12-20T07:28:07;5.97;;;2.60;;
13588;SDS011;6865;52.552;13.434;2023-12-20T07:30:34;11.73;;;2.57;;
13588;SDS011;6865;52.552;13.434;2023-12-20T07:33:01;8.00;;;2.60;;
13588;SDS011;6865;52.552;13.434;2023-12-20T07:35:28;11.87;;;2.80;;
13588;SDS011;6865;52.552;13.434;2023-12-20T07:37:55;8.77;;;2.73;;
13588;SDS011;6865;52.552;13.434;2023-12-20T07:40:22;8.70;;;2.47;;
13588;SDS011;6865;52.552;13.434;2023-12-20T07:42:50;10.40;;;2.70;;
13588;SDS011;6865;52.552;13.434;2023-12-20T07:45:16;10.63;;;2.80;;
13588;SDS011;6865;52.552;13.434;2023-12-20T07:47:43;10.83;;;2.53;;
13588;SDS011;6865;52.552;13.434;2023-12-20T07:50:10;10.73;;;3.13;;
13588;SDS011;6865;52.552;13.434;2023-12-20T07:52:37;9.20;;;2.00;;
13588;SDS011;6865;52.552;13.434;2023-12-20T07:55:04;7.17;;;2.33;;
13588;SDS011;6865;52.552;13.434;2023-12-20T07:57:31;8.47;;;2.33;;
13588;SDS011;6865;52.552;13.434;2023-12-20T07:59:58;11.17;;;2.77;;
13588;SDS011;6865;52.552;13.434;2023-12-20T08:02:24;8.70;;;2.33;;
13588;SDS011;6865;52.552;13.434;2023-12-20T08:04:51;11.43;;;2.73;;
13588;SDS011;6865;52.552;13.434;2023-12-20T08:07:18;9.63;;;2.70;;
13588;SDS011;6865;52.552;13.434;2023-12-20T08:09:44;9.13;;;2.50;;
13588;SDS011;6865;52.552;13.434;2023-12-20T08:12:11;8.73;;;2.33;;
13588;SDS011;6865;52.552;13.434;2023-12-20T08:14:38;13.00;;;3.00;;
13588;SDS011;6865;52.552;13.434;2023-12-20T08:17:05;8.57;;;1.90;;
13588;SDS011;6865;52.552;13.434;2023-12-20T08:19:31;9.63;;;3.07;;
13588;SDS011;6865;52.552;13.434;2023-12-20T08:21:58;9.70;;;2.30;;
13588;SDS011;6865;52.552;13.434;2023-12-20T08:24:25;8.50;;;2.60;;
13588;SDS011;6865;52.552;13.434;2023-12-20T08:26:52;8.63;;;2.27;;
13588;SDS011;6865;52.552;13.434;2023-12-20T08:29:18;10.63;;;2.60;;
13588;SDS011;6865;52.552;13.434;2023-12-20T08:31:45;13.23;;;2.30;;
13588;SDS011;6865;52.552;13.434;2023-12-20T08:34:12;6.53;;;2.03;;
13588;SDS011;6865;52.552;13.434;2023-12-20T08:36:41;9.50;;;2.40;;
13588;SDS011;6865;52.552;13.434;2023-12-20T08:39:08;9.33;;;2.70;;
13588;SDS011;6865;52.552;13.434;2023-12-20T08:41:35;11.67;;;2.37;;
13588;SDS011;6865;52.552;13.434;2023-12-20T08:44:02;8.23;;;2.33;;
13588;SDS011;6865;52.552;13.434;2023-12-20T08:46:28;5.13;;;2.10;;
13588;SDS011;6865;52.552;13.434;2023-12-20T08:48:55;9.73;;;2.37;;
13588;SDS011;6865;52.552;13.434;2023-12-20T08:51:23;9.33;;;2.07;;
13588;SDS011;6865;52.552;13.434;2023-12-20T08:53:51;8.73;;;2.10;;
13588;SDS011;6865;52.552;13.434;2023-12-20T08:56:18;12.03;;;2.57;;
13588;SDS011;6865;52.552;13.434;2023-12-20T08:58:47;11.93;;;2.80;;
13588;SDS011;6865;52.552;13.434;2023-12-20T09:01:14;9.40;;;2.13;;
13588;SDS011;6865;52.552;13.434;2023-12-20T09:03:41;6.43;;;2.30;;
13588;SDS011;6865;52.552;13.434;2023-12-20T09:06:08;8.67;;;2.17;;
13588;SDS011;6865;52.552;13.434;2023-12-20T09:08:35;8.53;;;3.00;;
13588;SDS011;6865;52.552;13.434;2023-12-20T09:11:05;8.50;;;2.50;;
13588;SDS011;6865;52.552;13.434;2023-12-20T09:13:33;9.17;;;2.57;;
13588;SDS011;6865;52.552;13.434;2023-12-20T09:16:00;8.60;;;2.30;;
13588;SDS011;6865;52.552;13.434;2023-12-20T09:18:26;10.40;;;2.60;;
13588;SDS011;6865;52.552;13.434;2023-12-20T09:20:54;9.40;;;2.63;;
13588;SDS011;6865;52.552;13.434;2023-12-20T09:23:21;12.03;;;2.70;;
13588;SDS011;6865;52.552;13.434;2023-12-20T09:25:48;9.43;;;2.17;;
13588;SDS011;6865;52.552;13.434;2023-12-20T09:28:14;9.60;;;2.50;;
13588;SDS011;6865;52.552;13.434;2023-12-20T09:30:41;16.97;;;3.93;;
13588;SDS011;6865;52.552;13.434;2023-12-20T09:33:08;12.80;;;3.77;;
13588;SDS011;6865;52.552;13.434;2023-12-20T09:35:35;6.70;;;2.03;;
13588;SDS011;6865;52.552;13.434;2023-12-20T09:38:03;7.37;;;2.47;;
13588;SDS011;6865;52.552;13.434;2023-12-20T09:40:29;12.00;;;2.70;;
13588;SDS011;6865;52.552;13.434;2023-12-20T09:43:08;10.63;;;2.43;;
13588;SDS011;6865;52.552;13.434;2023-12-20T09:45:39;12.50;;;2.47;;
13588;SDS011;6865;52.552;13.434;2023-12-20T09:48:07;7.43;;;2.03;;
13588;SDS011;6865;52.552;13.434;2023-12-20T09:50:36;8.20;;;2.60;;
13588;SDS011;6865;52.552;13.434;2023-12-20T09:53:03;15.00;;;3.70;;
13588;SDS011;6865;52.552;13.434;2023-12-20T09:55:35;10.70;;;4.67;;
13588;SDS011;6865;52.552;13.434;2023-12-20T09:58:02;8.80;;;2.50;;
13588;SDS011;6865;52.552;13.434;2023-12-20T10:00:29;9.60;;;2.90;;
13588;SDS011;6865;52.552;13.434;2023-12-20T10:02:56;11.47;;;2.70;;
13588;SDS011;6865;52.552;13.434;2023-12-20T10:05:28;10.40;;;2.90;;
13588;SDS011;6865;52.552;13.434;2023-12-20T10:07:56;12.50;;;2.30;;
13588;SDS011;6865;52.552;13.434;2023-12-20T10:10:23;11.43;;;2.43;;
13588;SDS011;6865;52.552;13.434;2023-12-20T10:13:12;13.90;;;2.90;;
13588;SDS011;6865;52.552;13.434;2023-12-20T10:15:40;11.63;;;2.60;;
13588;SDS011;6865;52.552;13.434;2023-12-20T10:18:08;11.50;;;2.70;;
13588;SDS011;6865;52.552;13.434;2023-12-20T10:20:35;9.03;;;2.50;;
13588;SDS011;6865;52.552;13.434;2023-12-20T10:23:01;9.83;;;2.77;;
13588;SDS011;6865;52.552;13.434;2023-12-20T10:25:28;14.63;;;2.73;;
13588;SDS011;6865;52.552;13.434;2023-12-20T10:28:08;11.80;;;2.50;;
13588;SDS011;6865;52.552;13.434;2023-12-20T10:30:40;10.47;;;2.57;;
13588;SDS011;6865;52.552;13.434;2023-12-20T10:33:08;10.73;;;2.40;;
13588;SDS011;6865;52.552;13.434;2023-12-20T10:35:37;5.83;;;2.00;;
13588;SDS011;6865;52.552;13.434;2023-12-20T10:38:08;7.40;;;2.50;;
13588;SDS011;6865;52.552;13.434;2023-12-20T10:40:36;7.53;;;2.03;;
13588;SDS011;6865;52.552;13.434;2023-12-20T10:43:04;11.03;;;2.70;;
13588;SDS011;6865;52.552;13.434;2023-12-20T10:45:32;8.50;;;2.60;;
13588;SDS011;6865;52.552;13.434;2023-12-20T10:47:59;11.87;;;2.30;;
13588;SDS011;6865;52.552;13.434;2023-12-20T10:50:27;14.10;;;2.93;;
13588;SDS011;6865;52.552;13.434;2023-12-20T10:52:55;8.03;;;2.20;;
13588;SDS011;6865;52.552;13.434;2023-12-20T10:55:23;9.93;;;2.90;;
13588;SDS011;6865;52.552;13.434;2023-12-20T10:58:06;9.37;;;2.40;;
13588;SDS011;6865;52.552;13.434;2023-12-20T11:00:40;7.43;;;2.47;;
13588;SDS011;6865;52.552;13.434;2023-12-20T11:03:11;7.03;;;2.27;;
13588;SDS011;6865;52.552;13.434;2023-12-20T11:05:47;8.93;;;2.47;;
13588;SDS011;6865;52.552;13.434;2023-12-20T11:08:20;7.90;;;2.37;;
13588;SDS011;6865;52.552;13.434;2023-12-20T11:11:14;10.20;;;2.70;;
13588;SDS011;6865;52.552;13.434;2023-12-20T11:14:07;8.60;;;2.77;;
13588;SDS011;6865;52.552;13.434;2023-12-20T11:16:41;8.87;;;2.30;;
13588;SDS011;6865;52.552;13.434;2023-12-20T11:19:20;7.30;;;2.27;;
13588;SDS011;6865;52.552;13.434;2023-12-20T11:21:47;7.17;;;2.73;;
13588;SDS011;6865;52.552;13.434;2023-12-20T11:24:15;13.87;;;2.87;;
13588;SDS011;6865;52.552;13.434;2023-12-20T11:26:46;11.23;;;2.37;;
13588;SDS011;6865;52.552;13.434;2023-12-20T11:29:30;9.20;;;2.60;;
13588;SDS011;6865;52.552;13.434;2023-12-20T11:31:59;9.17;;;2.57;;
13588;SDS011;6865;52.552;13.434;2023-12-20T11:34:31;16.77;;;2.97;;
13588;SDS011;6865;52.552;13.434;2023-12-20T11:37:00;11.43;;;2.43;;
13588;SDS011;6865;52.552;13.434;2023-12-20T11:39:29;8.53;;;3.03;;
13588;SDS011;6865;52.552;13.434;2023-12-20T11:41:57;11.13;;;2.40;;
13588;SDS011;6865;52.552;13.434;2023-12-20T11:44:31;9.47;;;2.60;;
13588;SDS011;6865;52.552;13.434;2023-12-20T11:46:58;12.07;;;2.73;;
13588;SDS011;6865;52.552;13.434;2023-12-20T11:49:25;10.50;;;2.70;;
13588;SDS011;6865;52.552;13.434;2023-12-20T11:51:52;7.53;;;2.63;;
13588;SDS011;6865;52.552;13.434;2023-12-20T11:54:19;6.87;;;2.53;;
13588;SDS011;6865;52.552;13.434;2023-12-20T11:56:46;8.37;;;2.73;;
13588;SDS011;6865;52.552;13.434;2023-12-20T11:59:13;10.20;;;2.87;;
13588;SDS011;6865;52.552;13.434;2023-12-20T12:01:49;7.73;;;2.63;;
13588;SDS011;6865;52.552;13.434;2023-12-20T12:04:19;12.67;;;2.87;;
13588;SDS011;6865;52.552;13.434;2023-12-20T12:06:46;7.93;;;2.63;;
13588;SDS011;6865;52.552;13.434;2023-12-20T12:09:13;11.30;;;2.53;;
13588;SDS011;6865;52.552;13.434;2023-12-20T12:11:40;10.20;;;3.00;;
13588;SDS011;6865;52.552;13.434;2023-12-20T12:14:07;6.03;;;2.33;;
13588;SDS011;6865;52.552;13.434;2023-12-20T12:16:34;9.70;;;2.70;;
13588;SDS011;6865;52.552;13.434;2023-12-20T12:19:01;5.27;;;2.03;;
13588;SDS011;6865;52.552;13.434;2023-12-20T12:21:28;12.23;;;2.40;;
13588;SDS011;6865;52.552;13.434;2023-12-20T12:24:08;10.50;;;2.70;;
13588;SDS011;6865;52.552;13.434;2023-12-20T12:26:35;7.43;;;2.30;;
13588;SDS011;6865;52.552;13.434;2023-12-20T12:29:02;6.07;;;2.27;;
13588;SDS011;6865;52.552;13.434;2023-12-20T12:31:30;10.23;;;2.57;;
13588;SDS011;6865;52.552;13.434;2023-12-20T12:33:57;4.10;;;2.13;;
13588;SDS011;6865;52.552;13.434;2023-12-20T12:36:24;6.67;;;2.23;;
13588;SDS011;6865;52.552;13.434;2023-12-20T12:38:50;12.87;;;2.97;;
13588;SDS011;6865;52.552;13.434;2023-12-20T12:41:17;4.57;;;2.10;;
13588;SDS011;6865;52.552;13.434;2023-12-20T12:43:44;5.70;;;2.33;;
13588;SDS011;6865;52.552;13.434;2023-12-20T12:46:11;7.10;;;2.87;;
13588;SDS011;6865;52.552;13.434;2023-12-20T12:48:37;9.37;;;2.77;;
13588;SDS011;6865;52.552;13.434;2023-12-20T12:51:06;8.43;;;2.93;;
13588;SDS011;6865;52.552;13.434;2023-12-20T12:53:38;10.43;;;2.07;;
13588;SDS011;6865;52.552;13.434;2023-12-20T12:56:06;9.63;;;2.33;;
13588;SDS011;6865;52.552;13.434;2023-12-20T12:58:33;5.50;;;2.50;;
13588;SDS011;6865;52.552;13.434;2023-12-20T13:01:00;7.93;;;2.83;;
13588;SDS011;6865;52.552;13.434;2023-12-20T13:03:27;9.73;;;3.00;;
13588;SDS011;6865;52.552;13.434;2023-12-20T13:05:54;9.20;;;3.03;;
13588;SDS011;6865;52.552;13.434;2023-12-20T13:08:21;7.53;;;2.63;;
13588;SDS011;6865;52.552;13.434;2023-12-20T13:10:48;8.60;;;2.77;;
13588;SDS011;6865;52.552;13.434;2023-12-20T13:13:15;6.80;;;3.00;;
13588;SDS011;6865;52.552;13.434;2023-12-20T13:15:43;8.70;;;2.83;;
13588;SDS011;6865;52.552;13.434;2023-12-20T13:18:17;8.40;;;2.80;;
13588;SDS011;6865;52.552;13.434;2023-12-20T13:20:47;12.77;;;3.77;;
13588;SDS011;6865;52.552;13.434;2023-12-20T13:23:14;7.47;;;3.50;;
13588;SDS011;6865;52.552;13.434;2023-12-20T13:25:41;10.43;;;4.93;;
13588;SDS011;6865;52.552;13.434;2023-12-20T13:28:08;10.40;;;3.20;;
13588;SDS011;6865;52.552;13.434;2023-12-20T13:30:35;5.43;;;2.10;;
13588;SDS011;6865;52.552;13.434;2023-12-20T13:33:02;3.40;;;1.50;;
13588;SDS011;6865;52.552;13.434;2023-12-20T13:35:29;2.80;;;1.60;;
13588;SDS011;6865;52.552;13.434;2023-12-20T13:37:57;4.70;;;2.37;;
13588;SDS011;6865;52.552;13.434;2023-12-20T13:40:24;1.60;;;1.00;;
13588;SDS011;6865;52.552;13.434;2023-12-20T13:42:51;3.30;;;1.37;;
13588;SDS011;6865;52.552;13.434;2023-12-20T13:45:18;2.83;;;1.13;;
13588;SDS011;6865;52.552;13.434;2023-12-20T13:47:44;6.10;;;1.27;;
13588;SDS011;6865;52.552;13.434;2023-12-20T13:50:12;2.97;;;1.20;;
13588;SDS011;6865;52.552;13.434;2023-12-20T13:52:39;1.23;;;0.90;;
13588;SDS011;6865;52.552;13.434;2023-12-20T13:55:06;3.70;;;1.23;;
13588;SDS011;6865;52.552;13.434;2023-12-20T13:57:34;2.43;;;1.20;;
13588;SDS011;6865;52.552;13.434;2023-12-20T14:00:20;1.90;;;1.00;;
13588;SDS011;6865;52.552;13.434;2023-12-20T14:02:47;3.77;;;1.10;;
13588;SDS011;6865;52.552;13.434;2023-12-20T14:05:15;1.97;;;1.20;;
13588;SDS011;6865;52.552;13.434;2023-12-20T14:07:44;2.60;;;1.20;;
13588;SDS011;6865;52.552;13.434;2023-12-20T14:10:12;3.17;;;1.00;;
13588;SDS011;6865;52.552;13.434;2023-12-20T14:12:40;2.07;;;1.13;;
13588;SDS011;6865;52.552;13.434;2023-12-20T14:15:07;3.90;;;2.00;;
13588;SDS011;6865;52.552;13.434;2023-12-20T14:17:37;2.83;;;1.37;;
13588;SDS011;6865;52.552;13.434;2023-12-20T14:20:05;3.03;;;1.30;;
13588;SDS011;6865;52.552;13.434;2023-12-20T14:22:36;6.27;;;1.50;;
13588;SDS011;6865;52.552;13.434;2023-12-20T14:25:05;2.97;;;1.40;;
13588;SDS011;6865;52.552;13.434;2023-12-20T14:27:32;3.40;;;1.40;;
13588;SDS011;6865;52.552;13.434;2023-12-20T14:29:59;2.57;;;1.10;;
13588;SDS011;6865;52.552;13.434;2023-12-20T14:32:27;3.80;;;1.07;;
13588;SDS011;6865;52.552;13.434;2023-12-20T14:34:54;3.07;;;1.13;;
13588;SDS011;6865;52.552;13.434;2023-12-20T14:37:21;1.13;;;0.90;;
13588;SDS011;6865;52.552;13.434;2023-12-20T14:39:48;3.83;;;1.10;;
13588;SDS011;6865;52.552;13.434;2023-12-20T14:42:15;4.73;;;1.30;;
13588;SDS011;6865;52.552;13.434;2023-12-20T14:44:42;3.80;;;1.00;;
13588;SDS011;6865;52.552;13.434;2023-12-20T14:47:09;4.17;;;1.07;;
13588;SDS011;6865;52.552;13.434;2023-12-20T14:49:36;3.27;;;1.20;;